Wabush, Canada
Current Conditions -  °F | °C
As of 9:00 PM on Sunday 21 Dec 2014 (Local Time) from CYWK Reporting Station
Clear Clear  
Wind Chill: -27°   Ceiling: Unl
Heat Index: -27°   Visibility: 15mi
Dew Point: -29°   Wind: 0mph
Humidity: 84%   Direction: NA
Pressure: 30.26"   Gusts: NA
Location:  52.9°N, 66.87°W
Report Text: CYWK 220100Z 00000KT 15SM SKC M27/M29 A3026 RMK SLP324
Loading
Personal Weather Stations






























Interactive Weather Map New forecast layout! Learn more

10-Day Weather Forecast

Advertisements
Track Severe Weather on mobile